sensor_id;sensor_type;location;lat;lon;timestamp;pressure;altitude;pressure_sealevel;temperature;humidity
4981;BME280;2507;50.392;7.482;2022-09-03T00:02:06;100347.56;;;17.43;47.55
4981;BME280;2507;50.392;7.482;2022-09-03T00:05:00;100355.28;;;16.60;49.14
4981;BME280;2507;50.392;7.482;2022-09-03T00:07:35;100352.19;;;16.29;50.48
4981;BME280;2507;50.392;7.482;2022-09-03T00:10:07;100347.78;;;16.38;50.08
4981;BME280;2507;50.392;7.482;2022-09-03T00:12:38;100342.31;;;16.39;50.42
4981;BME280;2507;50.392;7.482;2022-09-03T00:15:11;100340.03;;;16.44;50.56
4981;BME280;2507;50.392;7.482;2022-09-03T00:18:05;100345.88;;;16.30;50.86
4981;BME280;2507;50.392;7.482;2022-09-03T00:21:03;100350.38;;;16.47;50.32
4981;BME280;2507;50.392;7.482;2022-09-03T00:23:34;100341.16;;;16.77;49.42
4981;BME280;2507;50.392;7.482;2022-09-03T00:26:26;100341.09;;;16.86;49.11
4981;BME280;2507;50.392;7.482;2022-09-03T00:29:04;100340.25;;;17.11;48.22
4981;BME280;2507;50.392;7.482;2022-09-03T00:31:38;100331.06;;;16.98;48.99
4981;BME280;2507;50.392;7.482;2022-09-03T00:34:15;100330.13;;;16.81;49.39
4981;BME280;2507;50.392;7.482;2022-09-03T00:36:44;100332.75;;;16.81;49.44
4981;BME280;2507;50.392;7.482;2022-09-03T00:39:13;100333.34;;;16.67;49.84
4981;BME280;2507;50.392;7.482;2022-09-03T00:44:28;100342.84;;;16.60;50.02
4981;BME280;2507;50.392;7.482;2022-09-03T00:49:56;100345.41;;;16.70;50.06
4981;BME280;2507;50.392;7.482;2022-09-03T01:01:36;100335.06;;;16.76;50.03
4981;BME280;2507;50.392;7.482;2022-09-03T01:04:19;100341.44;;;16.91;49.76
4981;BME280;2507;50.392;7.482;2022-09-03T01:07:07;100333.56;;;16.99;49.22
4981;BME280;2507;50.392;7.482;2022-09-03T01:09:49;100341.03;;;17.04;49.04
4981;BME280;2507;50.392;7.482;2022-09-03T01:12:34;100339.03;;;17.06;49.09
4981;BME280;2507;50.392;7.482;2022-09-03T01:15:26;100340.72;;;17.07;48.97
4981;BME280;2507;50.392;7.482;2022-09-03T01:18:10;100339.22;;;17.04;49.64
4981;BME280;2507;50.392;7.482;2022-09-03T01:29:14;100347.09;;;16.71;50.23
4981;BME280;2507;50.392;7.482;2022-09-03T01:34:35;100344.22;;;16.47;51.21
4981;BME280;2507;50.392;7.482;2022-09-03T01:40:08;100346.81;;;16.56;51.00
4981;BME280;2507;50.392;7.482;2022-09-03T01:42:45;100342.63;;;16.71;50.63
4981;BME280;2507;50.392;7.482;2022-09-03T01:45:35;100352.28;;;16.80;50.47
4981;BME280;2507;50.392;7.482;2022-09-03T01:48:20;100351.78;;;16.77;50.27
4981;BME280;2507;50.392;7.482;2022-09-03T01:50:55;100353.72;;;16.75;50.32
4981;BME280;2507;50.392;7.482;2022-09-03T01:53:49;100356.09;;;16.78;50.18
4981;BME280;2507;50.392;7.482;2022-09-03T01:56:47;100347.47;;;16.76;50.09
4981;BME280;2507;50.392;7.482;2022-09-03T02:01:58;100332.41;;;16.41;51.11
4981;BME280;2507;50.392;7.482;2022-09-03T02:04:26;100339.78;;;16.47;50.87
4981;BME280;2507;50.392;7.482;2022-09-03T02:06:53;100343.16;;;16.57;50.55
4981;BME280;2507;50.392;7.482;2022-09-03T02:09:22;100337.78;;;16.49;50.92
4981;BME280;2507;50.392;7.482;2022-09-03T02:12:07;100332.25;;;16.60;50.72
4981;BME280;2507;50.392;7.482;2022-09-03T02:14:35;100331.06;;;16.55;50.76
4981;BME280;2507;50.392;7.482;2022-09-03T02:17:01;100338.25;;;16.62;50.79
4981;BME280;2507;50.392;7.482;2022-09-03T02:19:27;100331.19;;;16.71;50.71
4981;BME280;2507;50.392;7.482;2022-09-03T02:21:55;100334.13;;;16.85;50.16
4981;BME280;2507;50.392;7.482;2022-09-03T02:24:21;100334.53;;;16.98;50.33
4981;BME280;2507;50.392;7.482;2022-09-03T02:26:47;100334.25;;;17.09;50.02
4981;BME280;2507;50.392;7.482;2022-09-03T02:29:14;100329.91;;;17.00;50.82
4981;BME280;2507;50.392;7.482;2022-09-03T02:31:40;100333.66;;;17.15;50.35
4981;BME280;2507;50.392;7.482;2022-09-03T02:34:05;100338.47;;;17.20;50.06
4981;BME280;2507;50.392;7.482;2022-09-03T02:36:33;100337.38;;;17.30;49.88
4981;BME280;2507;50.392;7.482;2022-09-03T02:38:59;100334.72;;;17.30;49.82
4981;BME280;2507;50.392;7.482;2022-09-03T02:41:25;100331.25;;;17.30;49.47
4981;BME280;2507;50.392;7.482;2022-09-03T02:44:19;100334.59;;;17.40;48.92
4981;BME280;2507;50.392;7.482;2022-09-03T02:46:54;100336.31;;;17.49;48.63
4981;BME280;2507;50.392;7.482;2022-09-03T02:49:21;100340.84;;;17.57;48.85
4981;BME280;2507;50.392;7.482;2022-09-03T02:51:46;100331.78;;;17.67;48.67
4981;BME280;2507;50.392;7.482;2022-09-03T02:54:12;100322.25;;;17.49;49.31
4981;BME280;2507;50.392;7.482;2022-09-03T02:56:38;100325.06;;;17.55;49.08
4981;BME280;2507;50.392;7.482;2022-09-03T02:59:05;100334.94;;;17.79;48.57
4981;BME280;2507;50.392;7.482;2022-09-03T03:01:31;100333.81;;;17.81;48.55
4981;BME280;2507;50.392;7.482;2022-09-03T03:03:56;100334.13;;;17.78;48.79
4981;BME280;2507;50.392;7.482;2022-09-03T03:06:22;100328.16;;;17.76;49.03
4981;BME280;2507;50.392;7.482;2022-09-03T03:08:48;100326.03;;;17.88;48.67
4981;BME280;2507;50.392;7.482;2022-09-03T03:11:15;100320.91;;;17.94;48.08
4981;BME280;2507;50.392;7.482;2022-09-03T03:13:43;100323.91;;;17.99;48.36
4981;BME280;2507;50.392;7.482;2022-09-03T03:16:08;100318.75;;;17.98;48.38
4981;BME280;2507;50.392;7.482;2022-09-03T03:18:34;100313.31;;;18.23;47.58
4981;BME280;2507;50.392;7.482;2022-09-03T03:21:04;100318.41;;;18.01;48.08
4981;BME280;2507;50.392;7.482;2022-09-03T03:23:31;100312.91;;;17.86;48.57
4981;BME280;2507;50.392;7.482;2022-09-03T03:26:00;100316.25;;;17.88;48.86
4981;BME280;2507;50.392;7.482;2022-09-03T03:28:25;100318.56;;;17.91;49.16
4981;BME280;2507;50.392;7.482;2022-09-03T03:30:51;100326.53;;;17.83;49.20
4981;BME280;2507;50.392;7.482;2022-09-03T03:33:17;100325.84;;;17.89;49.08
4981;BME280;2507;50.392;7.482;2022-09-03T03:35:42;100327.03;;;17.95;48.94
4981;BME280;2507;50.392;7.482;2022-09-03T03:38:07;100331.69;;;18.01;49.04
4981;BME280;2507;50.392;7.482;2022-09-03T03:40:32;100333.03;;;18.05;48.61
4981;BME280;2507;50.392;7.482;2022-09-03T03:42:58;100331.53;;;17.94;49.04
4981;BME280;2507;50.392;7.482;2022-09-03T03:45:24;100329.66;;;17.79;49.65
4981;BME280;2507;50.392;7.482;2022-09-03T03:47:49;100324.97;;;17.73;50.00
4981;BME280;2507;50.392;7.482;2022-09-03T03:50:14;100324.34;;;17.79;49.97
4981;BME280;2507;50.392;7.482;2022-09-03T03:52:41;100322.69;;;17.78;49.49
4981;BME280;2507;50.392;7.482;2022-09-03T03:55:07;100326.47;;;17.75;49.54
4981;BME280;2507;50.392;7.482;2022-09-03T03:57:32;100324.28;;;17.63;49.50
4981;BME280;2507;50.392;7.482;2022-09-03T03:59:58;100331.69;;;17.51;49.48
4981;BME280;2507;50.392;7.482;2022-09-03T04:02:23;100328.16;;;17.43;49.87
4981;BME280;2507;50.392;7.482;2022-09-03T04:04:48;100325.44;;;17.34;50.06
4981;BME280;2507;50.392;7.482;2022-09-03T04:07:13;100331.19;;;17.22;51.00
4981;BME280;2507;50.392;7.482;2022-09-03T04:09:39;100329.72;;;17.27;50.65
4981;BME280;2507;50.392;7.482;2022-09-03T04:12:04;100322.72;;;17.18;50.30
4981;BME280;2507;50.392;7.482;2022-09-03T04:14:33;100319.34;;;17.08;50.25
4981;BME280;2507;50.392;7.482;2022-09-03T04:16:58;100322.00;;;17.08;50.82
4981;BME280;2507;50.392;7.482;2022-09-03T04:19:24;100319.34;;;17.08;50.35
4981;BME280;2507;50.392;7.482;2022-09-03T04:21:49;100323.91;;;17.24;50.04
4981;BME280;2507;50.392;7.482;2022-09-03T04:24:14;100317.88;;;17.40;49.73
4981;BME280;2507;50.392;7.482;2022-09-03T04:26:40;100308.66;;;17.52;49.38
4981;BME280;2507;50.392;7.482;2022-09-03T04:29:08;100314.50;;;17.63;48.92
4981;BME280;2507;50.392;7.482;2022-09-03T04:31:34;100316.72;;;17.76;49.03
4981;BME280;2507;50.392;7.482;2022-09-03T04:34:00;100320.19;;;17.76;49.07
4981;BME280;2507;50.392;7.482;2022-09-03T04:36:28;100320.38;;;17.83;49.14
4981;BME280;2507;50.392;7.482;2022-09-03T04:38:56;100318.06;;;17.88;48.59
4981;BME280;2507;50.392;7.482;2022-09-03T04:41:25;100311.47;;;18.00;48.43
4981;BME280;2507;50.392;7.482;2022-09-03T04:43:52;100314.75;;;18.02;48.34
4981;BME280;2507;50.392;7.482;2022-09-03T04:46:18;100323.69;;;17.85;48.65
4981;BME280;2507;50.392;7.482;2022-09-03T04:48:48;100314.59;;;17.95;48.40
4981;BME280;2507;50.392;7.482;2022-09-03T04:51:17;100322.84;;;17.84;48.15
4981;BME280;2507;50.392;7.482;2022-09-03T04:53:44;100324.47;;;17.69;49.33
4981;BME280;2507;50.392;7.482;2022-09-03T04:56:15;100321.97;;;17.68;49.72
4981;BME280;2507;50.392;7.482;2022-09-03T04:58:41;100322.38;;;17.89;49.15
4981;BME280;2507;50.392;7.482;2022-09-03T05:01:09;100333.53;;;18.08;48.40
4981;BME280;2507;50.392;7.482;2022-09-03T05:03:34;100336.19;;;18.16;47.80
4981;BME280;2507;50.392;7.482;2022-09-03T05:06:01;100330.25;;;18.14;48.21
4981;BME280;2507;50.392;7.482;2022-09-03T05:08:27;100330.03;;;17.92;47.54
4981;BME280;2507;50.392;7.482;2022-09-03T05:10:58;100330.34;;;17.89;48.28
4981;BME280;2507;50.392;7.482;2022-09-03T05:13:24;100327.41;;;18.00;47.91
4981;BME280;2507;50.392;7.482;2022-09-03T05:15:49;100325.28;;;18.35;47.48
4981;BME280;2507;50.392;7.482;2022-09-03T05:18:14;100325.47;;;18.90;46.35
4981;BME280;2507;50.392;7.482;2022-09-03T05:20:40;100328.94;;;19.62;45.38
4981;BME280;2507;50.392;7.482;2022-09-03T05:23:05;100319.84;;;20.17;44.02
4981;BME280;2507;50.392;7.482;2022-09-03T05:25:31;100328.00;;;20.39;43.30
4981;BME280;2507;50.392;7.482;2022-09-03T05:27:57;100331.72;;;20.29;43.31
4981;BME280;2507;50.392;7.482;2022-09-03T05:30:22;100335.41;;;19.67;44.96
4981;BME280;2507;50.392;7.482;2022-09-03T05:32:48;100329.66;;;19.48;46.02
4981;BME280;2507;50.392;7.482;2022-09-03T05:35:14;100338.00;;;19.45;46.58
4981;BME280;2507;50.392;7.482;2022-09-03T05:37:39;100334.09;;;19.63;46.27
4981;BME280;2507;50.392;7.482;2022-09-03T05:40:05;100338.19;;;19.82;46.15
4981;BME280;2507;50.392;7.482;2022-09-03T05:42:30;100326.28;;;19.92;45.93
4981;BME280;2507;50.392;7.482;2022-09-03T05:44:56;100335.28;;;19.91;45.85
4981;BME280;2507;50.392;7.482;2022-09-03T05:47:22;100333.97;;;19.87;45.79
4981;BME280;2507;50.392;7.482;2022-09-03T05:49:47;100337.72;;;20.01;45.03
4981;BME280;2507;50.392;7.482;2022-09-03T05:52:13;100336.31;;;19.82;43.45
4981;BME280;2507;50.392;7.482;2022-09-03T05:54:38;100335.84;;;19.79;44.21
4981;BME280;2507;50.392;7.482;2022-09-03T05:57:04;100339.78;;;19.91;44.35
4981;BME280;2507;50.392;7.482;2022-09-03T05:59:29;100335.34;;;20.06;44.23
4981;BME280;2507;50.392;7.482;2022-09-03T06:01:54;100332.47;;;20.23;43.78
4981;BME280;2507;50.392;7.482;2022-09-03T06:04:20;100340.94;;;20.27;43.66
4981;BME280;2507;50.392;7.482;2022-09-03T06:06:46;100336.66;;;20.41;44.80
4981;BME280;2507;50.392;7.482;2022-09-03T06:09:13;100345.78;;;20.23;44.99
4981;BME280;2507;50.392;7.482;2022-09-03T06:11:41;100348.94;;;19.88;44.98
4981;BME280;2507;50.392;7.482;2022-09-03T06:14:08;100356.88;;;19.96;45.16
4981;BME280;2507;50.392;7.482;2022-09-03T06:16:36;100352.84;;;20.08;45.37
4981;BME280;2507;50.392;7.482;2022-09-03T06:19:03;100365.22;;;20.32;46.03
4981;BME280;2507;50.392;7.482;2022-09-03T06:21:31;100365.47;;;20.14;47.58
4981;BME280;2507;50.392;7.482;2022-09-03T06:23:57;100387.75;;;19.91;49.22
4981;BME280;2507;50.392;7.482;2022-09-03T06:26:23;100376.53;;;19.65;50.42
4981;BME280;2507;50.392;7.482;2022-09-03T06:28:49;100387.06;;;19.26;52.09
4981;BME280;2507;50.392;7.482;2022-09-03T06:31:16;100382.28;;;19.13;52.88
4981;BME280;2507;50.392;7.482;2022-09-03T06:33:42;100379.97;;;19.02;52.42
4981;BME280;2507;50.392;7.482;2022-09-03T06:36:10;100383.78;;;19.08;52.63
4981;BME280;2507;50.392;7.482;2022-09-03T06:38:37;100382.63;;;19.02;53.29
4981;BME280;2507;50.392;7.482;2022-09-03T06:41:13;100388.94;;;19.01;53.97
4981;BME280;2507;50.392;7.482;2022-09-03T06:43:41;100386.78;;;18.97;54.10
4981;BME280;2507;50.392;7.482;2022-09-03T06:46:09;100387.94;;;19.02;54.29
4981;BME280;2507;50.392;7.482;2022-09-03T06:48:35;100438.16;;;19.05;53.93
4981;BME280;2507;50.392;7.482;2022-09-03T06:51:03;100383.59;;;19.09;53.74
4981;BME280;2507;50.392;7.482;2022-09-03T06:53:31;100391.41;;;19.19;54.58
4981;BME280;2507;50.392;7.482;2022-09-03T06:55:59;100391.53;;;19.50;53.36
4981;BME280;2507;50.392;7.482;2022-09-03T06:58:30;100386.34;;;19.64;53.01
4981;BME280;2507;50.392;7.482;2022-09-03T07:01:04;100379.28;;;19.79;52.17
4981;BME280;2507;50.392;7.482;2022-09-03T07:03:31;100385.59;;;19.78;53.28
4981;BME280;2507;50.392;7.482;2022-09-03T07:06:04;100387.78;;;19.75;52.96
4981;BME280;2507;50.392;7.482;2022-09-03T07:08:30;100378.81;;;19.76;53.50
4981;BME280;2507;50.392;7.482;2022-09-03T07:10:58;100379.09;;;19.89;53.11
4981;BME280;2507;50.392;7.482;2022-09-03T07:13:24;100387.41;;;20.16;50.89
4981;BME280;2507;50.392;7.482;2022-09-03T07:15:58;100383.59;;;20.27;51.22
4981;BME280;2507;50.392;7.482;2022-09-03T07:18:24;100389.28;;;20.47;51.31
4981;BME280;2507;50.392;7.482;2022-09-03T07:20:49;100384.91;;;20.76;50.62
4981;BME280;2507;50.392;7.482;2022-09-03T07:23:14;100386.13;;;20.66;50.84
4981;BME280;2507;50.392;7.482;2022-09-03T07:25:40;100385.34;;;20.57;50.85
4981;BME280;2507;50.392;7.482;2022-09-03T07:28:05;100379.66;;;20.07;52.77
4981;BME280;2507;50.392;7.482;2022-09-03T07:30:31;100383.34;;;19.67;53.88
4981;BME280;2507;50.392;7.482;2022-09-03T07:32:56;100380.22;;;19.56;54.07
4981;BME280;2507;50.392;7.482;2022-09-03T07:35:25;100384.66;;;20.02;53.34
4981;BME280;2507;50.392;7.482;2022-09-03T07:37:51;100385.34;;;20.34;52.68
4981;BME280;2507;50.392;7.482;2022-09-03T07:40:16;100388.44;;;20.23;51.84
4981;BME280;2507;50.392;7.482;2022-09-03T07:42:43;100385.78;;;20.15;53.04
4981;BME280;2507;50.392;7.482;2022-09-03T07:45:09;100386.13;;;20.12;52.30
4981;BME280;2507;50.392;7.482;2022-09-03T07:47:35;100388.34;;;20.01;52.72
4981;BME280;2507;50.392;7.482;2022-09-03T07:50:01;100385.88;;;20.30;52.04
4981;BME280;2507;50.392;7.482;2022-09-03T07:52:27;100389.88;;;20.34;51.93
4981;BME280;2507;50.392;7.482;2022-09-03T07:54:53;100392.53;;;20.34;51.84
4981;BME280;2507;50.392;7.482;2022-09-03T07:57:18;100393.50;;;20.33;52.05
4981;BME280;2507;50.392;7.482;2022-09-03T07:59:43;100390.13;;;20.47;51.59
4981;BME280;2507;50.392;7.482;2022-09-03T08:02:08;100400.81;;;20.84;50.36
4981;BME280;2507;50.392;7.482;2022-09-03T08:04:34;100388.66;;;21.04;50.43
4981;BME280;2507;50.392;7.482;2022-09-03T08:07:00;100383.13;;;21.06;50.70
4981;BME280;2507;50.392;7.482;2022-09-03T08:09:25;100398.03;;;21.38;50.45
4981;BME280;2507;50.392;7.482;2022-09-03T08:11:51;100401.44;;;21.75;50.10
4981;BME280;2507;50.392;7.482;2022-09-03T08:14:16;100398.28;;;22.01;50.21
4981;BME280;2507;50.392;7.482;2022-09-03T08:16:45;100392.59;;;22.40;48.45
4981;BME280;2507;50.392;7.482;2022-09-03T08:19:12;100401.97;;;22.92;48.25
4981;BME280;2507;50.392;7.482;2022-09-03T08:21:39;100403.84;;;23.19;47.76
4981;BME280;2507;50.392;7.482;2022-09-03T08:24:06;100405.06;;;23.17;49.76
4981;BME280;2507;50.392;7.482;2022-09-03T08:26:33;100407.34;;;23.48;48.72
4981;BME280;2507;50.392;7.482;2022-09-03T08:28:59;100403.91;;;23.54;47.40
4981;BME280;2507;50.392;7.482;2022-09-03T08:31:26;100401.22;;;23.54;47.35
4981;BME280;2507;50.392;7.482;2022-09-03T08:33:54;100415.03;;;23.51;48.30
4981;BME280;2507;50.392;7.482;2022-09-03T08:36:22;100407.63;;;23.93;46.90
4981;BME280;2507;50.392;7.482;2022-09-03T08:38:48;100407.84;;;23.98;45.46
4981;BME280;2507;50.392;7.482;2022-09-03T08:49:59;100409.34;;;25.33;44.76
4981;BME280;2507;50.392;7.482;2022-09-03T08:52:36;100409.97;;;25.55;42.64
4981;BME280;2507;50.392;7.482;2022-09-03T08:55:15;100414.31;;;25.56;41.54
4981;BME280;2507;50.392;7.482;2022-09-03T08:57:50;100403.59;;;25.36;41.09
4981;BME280;2507;50.392;7.482;2022-09-03T09:00:17;100410.63;;;24.98;41.19
4981;BME280;2507;50.392;7.482;2022-09-03T09:05:18;100396.91;;;24.60;41.70
4981;BME280;2507;50.392;7.482;2022-09-03T09:07:52;100406.97;;;24.32;42.64
4981;BME280;2507;50.392;7.482;2022-09-03T09:13:41;100404.88;;;24.21;41.64
4981;BME280;2507;50.392;7.482;2022-09-03T09:16:39;100405.75;;;23.94;43.20
4981;BME280;2507;50.392;7.482;2022-09-03T09:21:52;100421.78;;;23.47;44.06
4981;BME280;2507;50.392;7.482;2022-09-03T09:24:23;100420.56;;;23.21;44.08
4981;BME280;2507;50.392;7.482;2022-09-03T09:26:57;100424.75;;;23.09;44.97
4981;BME280;2507;50.392;7.482;2022-09-03T09:29:26;100423.25;;;23.28;44.78
4981;BME280;2507;50.392;7.482;2022-09-03T09:31:53;100418.66;;;23.77;43.72
4981;BME280;2507;50.392;7.482;2022-09-03T09:34:18;100422.06;;;23.99;43.34
4981;BME280;2507;50.392;7.482;2022-09-03T09:36:48;100408.03;;;23.97;43.24
4981;BME280;2507;50.392;7.482;2022-09-03T09:39:14;100411.28;;;23.86;43.75
4981;BME280;2507;50.392;7.482;2022-09-03T09:41:41;100411.91;;;23.88;43.59
4981;BME280;2507;50.392;7.482;2022-09-03T09:44:17;100411.59;;;24.04;43.43
4981;BME280;2507;50.392;7.482;2022-09-03T09:46:43;100414.22;;;24.38;43.36
4981;BME280;2507;50.392;7.482;2022-09-03T09:49:29;100415.03;;;24.32;43.16
4981;BME280;2507;50.392;7.482;2022-09-03T09:52:05;100417.88;;;24.24;43.43
4981;BME280;2507;50.392;7.482;2022-09-03T09:54:32;100420.13;;;24.14;43.75
4981;BME280;2507;50.392;7.482;2022-09-03T09:56:59;100414.19;;;24.25;43.14
4981;BME280;2507;50.392;7.482;2022-09-03T09:59:24;100420.38;;;24.32;43.52
4981;BME280;2507;50.392;7.482;2022-09-03T10:01:49;100416.69;;;24.40;43.27
4981;BME280;2507;50.392;7.482;2022-09-03T10:04:28;100414.22;;;24.45;43.56
4981;BME280;2507;50.392;7.482;2022-09-03T10:07:15;100413.69;;;24.75;43.14
4981;BME280;2507;50.392;7.482;2022-09-03T10:10:00;100421.47;;;24.57;42.76
4981;BME280;2507;50.392;7.482;2022-09-03T10:12:35;100406.06;;;24.72;42.83
4981;BME280;2507;50.392;7.482;2022-09-03T10:17:45;100419.16;;;24.35;43.31
4981;BME280;2507;50.392;7.482;2022-09-03T10:20:23;100417.44;;;24.20;44.29
4981;BME280;2507;50.392;7.482;2022-09-03T10:23:17;100416.66;;;24.33;43.98
4981;BME280;2507;50.392;7.482;2022-09-03T10:26:00;100424.56;;;24.48;44.21
4981;BME280;2507;50.392;7.482;2022-09-03T10:28:33;100411.38;;;24.66;43.36
4981;BME280;2507;50.392;7.482;2022-09-03T10:31:06;100424.16;;;24.57;44.08
4981;BME280;2507;50.392;7.482;2022-09-03T10:33:41;100416.28;;;24.49;44.17
4981;BME280;2507;50.392;7.482;2022-09-03T10:36:21;100413.09;;;24.86;43.46
4981;BME280;2507;50.392;7.482;2022-09-03T10:39:10;100406.91;;;24.92;43.34
4981;BME280;2507;50.392;7.482;2022-09-03T10:42:24;100415.59;;;25.27;42.64
4981;BME280;2507;50.392;7.482;2022-09-03T10:45:03;100405.66;;;25.34;42.88
4981;BME280;2507;50.392;7.482;2022-09-03T10:50:22;100411.84;;;24.82;43.32
4981;BME280;2507;50.392;7.482;2022-09-03T10:55:37;100406.28;;;24.90;43.62
4981;BME280;2507;50.392;7.482;2022-09-03T11:00:31;100399.47;;;25.01;43.39
4981;BME280;2507;50.392;7.482;2022-09-03T11:03:24;100408.56;;;25.19;43.00
4981;BME280;2507;50.392;7.482;2022-09-03T11:06:08;100407.28;;;25.55;42.67
4981;BME280;2507;50.392;7.482;2022-09-03T11:11:18;100395.09;;;25.26;43.47
4981;BME280;2507;50.392;7.482;2022-09-03T11:14:08;100401.31;;;25.13;44.20
4981;BME280;2507;50.392;7.482;2022-09-03T11:17:01;100386.00;;;25.60;42.57
4981;BME280;2507;50.392;7.482;2022-09-03T11:19:44;100389.81;;;25.90;41.93
4981;BME280;2507;50.392;7.482;2022-09-03T11:22:15;100382.97;;;25.94;41.98
4981;BME280;2507;50.392;7.482;2022-09-03T11:24:44;100380.00;;;25.58;42.92
4981;BME280;2507;50.392;7.482;2022-09-03T11:27:43;100377.75;;;25.15;43.87
4981;BME280;2507;50.392;7.482;2022-09-03T11:30:22;100368.47;;;25.11;44.72
4981;BME280;2507;50.392;7.482;2022-09-03T11:32:53;100370.31;;;24.91;45.11
4981;BME280;2507;50.392;7.482;2022-09-03T11:35:27;100359.19;;;24.88;45.66
4981;BME280;2507;50.392;7.482;2022-09-03T11:37:58;100359.34;;;25.32;44.86
4981;BME280;2507;50.392;7.482;2022-09-03T11:40:37;100360.19;;;25.33;44.50
4981;BME280;2507;50.392;7.482;2022-09-03T11:45:59;100351.94;;;25.14;45.06
4981;BME280;2507;50.392;7.482;2022-09-03T11:48:45;100336.63;;;25.35;44.71
4981;BME280;2507;50.392;7.482;2022-09-03T11:51:30;100338.25;;;25.36;44.90
4981;BME280;2507;50.392;7.482;2022-09-03T11:54:05;100340.28;;;25.53;44.44
4981;BME280;2507;50.392;7.482;2022-09-03T11:56:32;100329.63;;;25.14;46.23
4981;BME280;2507;50.392;7.482;2022-09-03T12:01:26;100337.47;;;25.15;45.74
4981;BME280;2507;50.392;7.482;2022-09-03T12:04:02;100334.81;;;25.09;46.06
4981;BME280;2507;50.392;7.482;2022-09-03T12:09:59;100325.41;;;25.57;44.93
4981;BME280;2507;50.392;7.482;2022-09-03T12:18:17;100326.69;;;25.28;46.08
4981;BME280;2507;50.392;7.482;2022-09-03T12:23:47;100324.78;;;26.06;44.73
4981;BME280;2507;50.392;7.482;2022-09-03T12:26:22;100320.47;;;26.36;43.97
4981;BME280;2507;50.392;7.482;2022-09-03T12:28:54;100316.53;;;26.63;43.54
4981;BME280;2507;50.392;7.482;2022-09-03T12:31:25;100315.91;;;26.92;42.58
4981;BME280;2507;50.392;7.482;2022-09-03T12:36:22;100312.63;;;27.08;42.31
4981;BME280;2507;50.392;7.482;2022-09-03T12:38:48;100312.59;;;26.90;42.52
4981;BME280;2507;50.392;7.482;2022-09-03T12:41:22;100308.16;;;26.78;43.10
4981;BME280;2507;50.392;7.482;2022-09-03T12:43:54;100311.13;;;26.94;42.61
4981;BME280;2507;50.392;7.482;2022-09-03T12:46:25;100308.06;;;26.91;43.08
4981;BME280;2507;50.392;7.482;2022-09-03T12:48:53;100309.31;;;26.88;42.80
4981;BME280;2507;50.392;7.482;2022-09-03T12:51:18;100308.31;;;26.58;43.50
4981;BME280;2507;50.392;7.482;2022-09-03T12:53:44;100307.78;;;26.43;43.51
4981;BME280;2507;50.392;7.482;2022-09-03T12:56:10;100306.03;;;26.55;43.42
4981;BME280;2507;50.392;7.482;2022-09-03T12:58:50;100299.75;;;26.92;42.78
4981;BME280;2507;50.392;7.482;2022-09-03T13:01:49;100295.13;;;27.17;42.44
4981;BME280;2507;50.392;7.482;2022-09-03T13:04:23;100284.59;;;27.52;42.17
4981;BME280;2507;50.392;7.482;2022-09-03T13:06:55;100288.84;;;27.78;41.50
4981;BME280;2507;50.392;7.482;2022-09-03T13:09:25;100284.97;;;27.56;42.20
4981;BME280;2507;50.392;7.482;2022-09-03T13:11:54;100289.13;;;27.70;41.76
4981;BME280;2507;50.392;7.482;2022-09-03T13:14:20;100291.41;;;27.73;41.26
4981;BME280;2507;50.392;7.482;2022-09-03T13:16:58;100282.44;;;27.43;42.13
4981;BME280;2507;50.392;7.482;2022-09-03T13:22:29;100282.94;;;27.51;42.20
4981;BME280;2507;50.392;7.482;2022-09-03T13:25:18;100286.34;;;27.22;42.63
4981;BME280;2507;50.392;7.482;2022-09-03T13:28:10;100279.09;;;27.22;42.38
4981;BME280;2507;50.392;7.482;2022-09-03T13:33:40;100287.47;;;26.96;42.68
4981;BME280;2507;50.392;7.482;2022-09-03T13:36:15;100288.06;;;26.98;42.68
4981;BME280;2507;50.392;7.482;2022-09-03T13:38:47;100288.66;;;27.00;42.62
4981;BME280;2507;50.392;7.482;2022-09-03T13:41:33;100283.56;;;26.92;42.77
4981;BME280;2507;50.392;7.482;2022-09-03T13:44:09;100275.91;;;26.89;43.11
4981;BME280;2507;50.392;7.482;2022-09-03T13:46:44;100290.00;;;27.09;42.91
4981;BME280;2507;50.392;7.482;2022-09-03T13:52:42;100275.16;;;27.61;41.44
4981;BME280;2507;50.392;7.482;2022-09-03T13:57:58;100275.84;;;27.86;41.33
4981;BME280;2507;50.392;7.482;2022-09-03T14:03:47;100275.59;;;28.06;41.07
4981;BME280;2507;50.392;7.482;2022-09-03T14:06:35;100271.50;;;28.03;41.01
4981;BME280;2507;50.392;7.482;2022-09-03T14:09:32;100270.44;;;27.86;41.20
4981;BME280;2507;50.392;7.482;2022-09-03T14:12:04;100265.06;;;27.86;41.76
4981;BME280;2507;50.392;7.482;2022-09-03T14:17:45;100264.19;;;27.92;41.42
4981;BME280;2507;50.392;7.482;2022-09-03T14:23:03;100263.09;;;27.46;42.21
4981;BME280;2507;50.392;7.482;2022-09-03T14:25:30;100268.19;;;27.54;42.16
4981;BME280;2507;50.392;7.482;2022-09-03T14:28:13;100254.03;;;27.88;41.59
4981;BME280;2507;50.392;7.482;2022-09-03T14:30:48;100258.25;;;28.13;41.13
4981;BME280;2507;50.392;7.482;2022-09-03T14:39:55;100276.03;;;27.01;43.43
4981;BME280;2507;50.392;7.482;2022-09-03T14:45:25;100284.09;;;27.01;43.51
4981;BME280;2507;50.392;7.482;2022-09-03T14:48:10;100281.41;;;27.19;43.42
4981;BME280;2507;50.392;7.482;2022-09-03T14:53:24;100270.97;;;26.86;43.69
4981;BME280;2507;50.392;7.482;2022-09-03T14:56:23;100277.63;;;26.84;44.43
4981;BME280;2507;50.392;7.482;2022-09-03T14:59:13;100272.78;;;26.74;44.70
4981;BME280;2507;50.392;7.482;2022-09-03T15:01:47;100278.34;;;26.48;45.42
4981;BME280;2507;50.392;7.482;2022-09-03T15:04:44;100272.41;;;26.40;45.42
4981;BME280;2507;50.392;7.482;2022-09-03T15:07:32;100287.47;;;26.16;45.89
4981;BME280;2507;50.392;7.482;2022-09-03T15:12:57;100324.47;;;24.86;58.78
4981;BME280;2507;50.392;7.482;2022-09-03T15:15:31;100337.88;;;23.87;62.93
4981;BME280;2507;50.392;7.482;2022-09-03T15:18:12;100337.53;;;23.21;65.36
4981;BME280;2507;50.392;7.482;2022-09-03T15:36:50;100362.09;;;21.55;74.77
4981;BME280;2507;50.392;7.482;2022-09-03T15:39:23;100360.25;;;21.55;73.74
4981;BME280;2507;50.392;7.482;2022-09-03T15:41:55;100369.38;;;21.46;72.44
4981;BME280;2507;50.392;7.482;2022-09-03T15:44:24;100374.00;;;21.52;71.41
4981;BME280;2507;50.392;7.482;2022-09-03T15:46:59;100397.38;;;21.50;70.84
4981;BME280;2507;50.392;7.482;2022-09-03T15:52:09;100422.88;;;20.56;78.17